sensor_id;sensor_type;location;lat;lon;timestamp;temperature;humidity
35445;DHT22;21562;49.476;6.086;2023-06-19T14:34:21;26.20;99.90
35445;DHT22;21562;49.476;6.086;2023-06-19T14:36:47;26.40;99.90
35445;DHT22;21562;49.476;6.086;2023-06-19T14:39:13;27.10;99.90
35445;DHT22;21562;49.476;6.086;2023-06-19T14:41:38;27.70;99.90
35445;DHT22;21562;49.476;6.086;2023-06-19T14:44:07;28.00;99.90
35445;DHT22;21562;49.476;6.086;2023-06-19T14:46:32;28.40;99.90
35445;DHT22;21562;49.476;6.086;2023-06-19T14:48:58;28.60;99.90
35445;DHT22;21562;49.476;6.086;2023-06-19T14:51:26;28.70;99.90
35445;DHT22;21562;49.476;6.086;2023-06-19T14:53:52;28.90;99.90
35445;DHT22;21562;49.476;6.086;2023-06-19T14:56:18;29.10;99.00
35445;DHT22;21562;49.476;6.086;2023-06-19T14:58:44;29.20;98.90
35445;DHT22;21562;49.476;6.086;2023-06-19T15:01:10;29.20;98.70
35445;DHT22;21562;49.476;6.086;2023-06-19T15:03:35;29.30;98.20
35445;DHT22;21562;49.476;6.086;2023-06-19T15:06:03;29.30;99.30
35445;DHT22;21562;49.476;6.086;2023-06-19T15:08:29;29.10;98.60
35445;DHT22;21562;49.476;6.086;2023-06-19T15:10:56;28.40;99.10
35445;DHT22;21562;49.476;6.086;2023-06-19T15:13:23;28.00;99.80
35445;DHT22;21562;49.476;6.086;2023-06-19T15:15:48;27.80;99.90
35445;DHT22;21562;49.476;6.086;2023-06-19T15:18:16;28.10;99.90
35445;DHT22;21562;49.476;6.086;2023-06-19T15:20:41;28.50;99.30
35445;DHT22;21562;49.476;6.086;2023-06-19T15:23:08;28.80;99.10
35445;DHT22;21562;49.476;6.086;2023-06-19T15:25:33;29.20;98.70
35445;DHT22;21562;49.476;6.086;2023-06-19T15:28:03;29.40;99.10
35445;DHT22;21562;49.476;6.086;2023-06-19T15:30:29;29.60;98.50
35445;DHT22;21562;49.476;6.086;2023-06-19T15:32:54;28.90;98.20
35445;DHT22;21562;49.476;6.086;2023-06-19T15:35:20;28.60;98.50
35445;DHT22;21562;49.476;6.086;2023-06-19T15:37:46;28.40;98.70
35445;DHT22;21562;49.476;6.086;2023-06-19T15:40:11;28.90;99.40
35445;DHT22;21562;49.476;6.086;2023-06-19T15:42:38;29.40;99.20
35445;DHT22;21562;49.476;6.086;2023-06-19T15:45:04;29.70;98.50
35445;DHT22;21562;49.476;6.086;2023-06-19T15:47:30;29.90;98.90
35445;DHT22;21562;49.476;6.086;2023-06-19T15:49:57;29.80;98.50
35445;DHT22;21562;49.476;6.086;2023-06-19T15:52:23;29.80;98.00
35445;DHT22;21562;49.476;6.086;2023-06-19T15:54:53;29.40;98.50
35445;DHT22;21562;49.476;6.086;2023-06-19T15:57:21;29.40;98.50
35445;DHT22;21562;49.476;6.086;2023-06-19T15:59:48;28.90;99.30
35445;DHT22;21562;49.476;6.086;2023-06-19T16:02:19;29.40;99.30
35445;DHT22;21562;49.476;6.086;2023-06-19T16:04:46;29.90;99.40
35445;DHT22;21562;49.476;6.086;2023-06-19T16:07:12;29.40;98.90
35445;DHT22;21562;49.476;6.086;2023-06-19T16:09:38;29.60;99.10
35445;DHT22;21562;49.476;6.086;2023-06-19T16:12:04;29.90;98.70
35445;DHT22;21562;49.476;6.086;2023-06-19T16:14:31;30.10;98.50
35445;DHT22;21562;49.476;6.086;2023-06-19T16:16:56;30.10;98.40
35445;DHT22;21562;49.476;6.086;2023-06-19T16:19:22;29.70;98.10
35445;DHT22;21562;49.476;6.086;2023-06-19T16:21:48;29.50;98.50
35445;DHT22;21562;49.476;6.086;2023-06-19T16:24:13;29.40;98.70
35445;DHT22;21562;49.476;6.086;2023-06-19T16:26:39;29.50;98.70
35445;DHT22;21562;49.476;6.086;2023-06-19T16:29:11;29.40;98.60
35445;DHT22;21562;49.476;6.086;2023-06-19T16:31:41;29.50;98.80
35445;DHT22;21562;49.476;6.086;2023-06-19T16:34:07;29.40;98.90
35445;DHT22;21562;49.476;6.086;2023-06-19T16:36:33;29.30;99.40
35445;DHT22;21562;49.476;6.086;2023-06-19T16:38:59;29.40;99.10
35445;DHT22;21562;49.476;6.086;2023-06-19T16:41:26;29.30;99.40
35445;DHT22;21562;49.476;6.086;2023-06-19T16:43:52;29.20;99.20
35445;DHT22;21562;49.476;6.086;2023-06-19T16:46:17;29.20;99.00
35445;DHT22;21562;49.476;6.086;2023-06-19T16:48:43;29.30;99.20
35445;DHT22;21562;49.476;6.086;2023-06-19T16:51:09;29.30;99.00
35445;DHT22;21562;49.476;6.086;2023-06-19T16:53:35;29.30;99.80
35445;DHT22;21562;49.476;6.086;2023-06-19T16:56:01;29.30;99.40
35445;DHT22;21562;49.476;6.086;2023-06-19T16:58:27;29.50;99.50
35445;DHT22;21562;49.476;6.086;2023-06-19T17:00:53;29.50;99.50
35445;DHT22;21562;49.476;6.086;2023-06-19T17:03:19;29.50;99.20
35445;DHT22;21562;49.476;6.086;2023-06-19T17:05:45;29.40;99.10
35445;DHT22;21562;49.476;6.086;2023-06-19T17:08:11;29.40;99.60
35445;DHT22;21562;49.476;6.086;2023-06-19T17:10:37;29.30;99.40
35445;DHT22;21562;49.476;6.086;2023-06-19T17:13:02;29.40;99.40
35445;DHT22;21562;49.476;6.086;2023-06-19T17:15:28;29.50;99.30
35445;DHT22;21562;49.476;6.086;2023-06-19T17:17:57;29.50;99.20
35445;DHT22;21562;49.476;6.086;2023-06-19T17:20:23;29.50;99.20
35445;DHT22;21562;49.476;6.086;2023-06-19T17:22:49;29.70;99.50
35445;DHT22;21562;49.476;6.086;2023-06-19T17:25:14;29.80;99.40
35445;DHT22;21562;49.476;6.086;2023-06-19T17:27:41;29.70;99.50
35445;DHT22;21562;49.476;6.086;2023-06-19T17:30:07;29.60;99.90
35445;DHT22;21562;49.476;6.086;2023-06-19T17:32:35;29.70;99.70
35445;DHT22;21562;49.476;6.086;2023-06-19T17:35:00;29.50;99.90
35445;DHT22;21562;49.476;6.086;2023-06-19T17:37:30;29.30;99.90
35445;DHT22;21562;49.476;6.086;2023-06-19T17:39:58;29.30;99.90
35445;DHT22;21562;49.476;6.086;2023-06-19T17:42:25;29.30;99.90
35445;DHT22;21562;49.476;6.086;2023-06-19T17:44:50;29.30;99.90
35445;DHT22;21562;49.476;6.086;2023-06-19T17:47:16;29.60;99.90
35445;DHT22;21562;49.476;6.086;2023-06-19T17:49:42;29.60;99.90
35445;DHT22;21562;49.476;6.086;2023-06-19T17:52:08;29.40;99.90
35445;DHT22;21562;49.476;6.086;2023-06-19T17:54:34;29.10;99.90
35445;DHT22;21562;49.476;6.086;2023-06-19T17:56:59;28.90;99.90
35445;DHT22;21562;49.476;6.086;2023-06-19T17:59:25;28.70;99.90
35445;DHT22;21562;49.476;6.086;2023-06-19T18:01:51;28.80;99.90
35445;DHT22;21562;49.476;6.086;2023-06-19T18:04:17;28.80;99.90
35445;DHT22;21562;49.476;6.086;2023-06-19T18:06:42;28.80;99.90
35445;DHT22;21562;49.476;6.086;2023-06-19T18:09:08;28.70;99.90
35445;DHT22;21562;49.476;6.086;2023-06-19T18:11:34;28.60;99.90
35445;DHT22;21562;49.476;6.086;2023-06-19T18:14:00;28.60;99.90
35445;DHT22;21562;49.476;6.086;2023-06-19T18:16:26;28.60;99.90
35445;DHT22;21562;49.476;6.086;2023-06-19T18:18:54;28.80;99.90
35445;DHT22;21562;49.476;6.086;2023-06-19T18:21:20;28.90;99.90
35445;DHT22;21562;49.476;6.086;2023-06-19T18:23:46;29.10;99.90
35445;DHT22;21562;49.476;6.086;2023-06-19T18:26:11;29.10;99.90
35445;DHT22;21562;49.476;6.086;2023-06-19T18:28:37;29.20;99.90
35445;DHT22;21562;49.476;6.086;2023-06-19T18:31:03;29.40;99.90
35445;DHT22;21562;49.476;6.086;2023-06-19T18:33:29;29.50;99.90
35445;DHT22;21562;49.476;6.086;2023-06-19T18:35:54;29.70;99.90
35445;DHT22;21562;49.476;6.086;2023-06-19T18:38:20;29.80;99.90
35445;DHT22;21562;49.476;6.086;2023-06-19T18:40:46;29.80;99.90
35445;DHT22;21562;49.476;6.086;2023-06-19T18:43:13;29.70;99.90
35445;DHT22;21562;49.476;6.086;2023-06-19T18:45:39;29.70;99.90
35445;DHT22;21562;49.476;6.086;2023-06-19T18:48:05;29.70;99.90
35445;DHT22;21562;49.476;6.086;2023-06-19T18:50:31;29.80;99.90
35445;DHT22;21562;49.476;6.086;2023-06-19T18:52:57;29.80;99.90
35445;DHT22;21562;49.476;6.086;2023-06-19T18:55:23;29.80;99.90
35445;DHT22;21562;49.476;6.086;2023-06-19T18:57:48;29.80;99.90
35445;DHT22;21562;49.476;6.086;2023-06-19T19:00:15;29.80;99.90
35445;DHT22;21562;49.476;6.086;2023-06-19T19:02:41;29.80;99.90
35445;DHT22;21562;49.476;6.086;2023-06-19T19:05:07;29.60;99.90
35445;DHT22;21562;49.476;6.086;2023-06-19T19:07:33;28.80;99.90
35445;DHT22;21562;49.476;6.086;2023-06-19T19:09:59;28.20;99.90
35445;DHT22;21562;49.476;6.086;2023-06-19T19:12:24;27.30;99.90
35445;DHT22;21562;49.476;6.086;2023-06-19T19:14:50;26.80;99.90
35445;DHT22;21562;49.476;6.086;2023-06-19T19:17:15;26.60;99.90
